South Chesterfield, Massachusetts
Current Conditions -  °F | °C
As of 12:53 AM on Saturday 25 Oct 2014 (Local Time) from KBAF Reporting Station
Few Clouds Few Clouds  
Wind Chill: 51°   Ceiling: Unl
Heat Index: 51°   Visibility: 10mi
Dew Point: 39°   Wind: 13mph
Humidity: 63%   Direction: 330°NNW
Pressure: 29.79"   Gusts: NA
Location:  42.4143°N, 72.7787°W
Report Text: KBAF 250453Z AUTO 33011KT 10SM FEW049 11/04 A2979 RMK AO2 SLP089 T01060039 401390083
Loading
Personal Weather Stations






























Interactive Weather Map
Tropical Storm Tracking
New forecast layout! Learn more

10-Day Weather Forecast

Advertisements
Track Severe Weather on mobile